Time;durP1;ratioP1;P1;durP2;ratioP2;P2;SDS_P1;SDS_P2;PMS_P1;PMS_P2;Temp;Humidity;BMP_temperature;BMP_pressure;BME280_temperature;BME280_humidity;BME280_pressure;Samples;Min_cycle;Max_cycle;Signal;HPM_P1;HPM_P2
2022/03/30 00:02:09;;;;;;;15.03;11.13;;;16.70;50.30;;;-142.21;75.33;112049.66;4940870;29;20933;-74
2022/03/30 00:04:38;;;;;;;15.23;11.70;;;16.70;50.00;;;-142.21;77.40;112049.66;4955396;28;20455;-74
2022/03/30 00:07:06;;;;;;;15.67;10.70;;;16.80;50.40;;;-142.21;75.41;112049.66;4957551;28;20556;-73
2022/03/30 00:09:34;;;;;;;14.90;11.57;;;16.90;50.50;;;-142.21;77.02;112049.66;4953132;28;20445;-73
2022/03/30 00:12:01;;;;;;;15.63;11.43;;;16.80;50.30;;;-142.21;75.59;112049.66;4954391;28;20533;-73
2022/03/30 00:14:29;;;;;;;14.67;11.00;;;16.90;50.60;;;-142.21;79.70;112049.66;4953262;28;20540;-73
2022/03/30 00:16:57;;;;;;;14.30;11.43;;;16.80;51.30;;;-142.21;81.78;112049.66;4950676;29;20483;-73
2022/03/30 00:19:25;;;;;;;21.10;12.27;;;16.60;52.30;;;-142.21;83.30;112049.66;4954731;28;20541;-73
2022/03/30 00:21:53;;;;;;;16.43;11.30;;;16.60;52.90;;;-142.21;85.63;112049.66;4953421;28;20544;-73
2022/03/30 00:24:20;;;;;;;19.40;12.10;;;16.60;54.10;;;-142.21;86.92;112049.66;4954611;28;20800;-73
2022/03/30 00:26:48;;;;;;;15.37;11.37;;;16.50;53.50;;;-142.21;88.45;112049.66;4953113;29;20536;-73
2022/03/30 00:29:16;;;;;;;15.37;12.07;;;16.60;54.20;;;-142.21;87.62;112049.66;4954562;28;20517;-74
2022/03/30 00:31:43;;;;;;;19.10;13.07;;;16.50;54.00;;;-142.21;89.17;112049.66;4953940;28;20448;-73
2022/03/30 00:34:10;;;;;;;17.30;12.20;;;16.50;54.00;;;-142.21;89.34;112049.66;4951645;28;20459;-73
2022/03/30 00:36:37;;;;;;;17.77;11.73;;;16.50;54.50;;;-142.21;90.25;112049.66;4953577;29;20964;-73
2022/03/30 00:39:04;;;;;;;14.70;12.13;;;16.60;54.70;;;-142.21;92.56;112049.66;4952930;28;20491;-73
2022/03/30 00:41:31;;;;;;;18.40;12.53;;;16.60;54.90;;;-142.21;93.67;112049.66;4941519;29;20869;-73
2022/03/30 00:44:10;;;;;;;18.60;12.27;;;16.60;55.20;;;-142.21;92.90;112049.66;4949187;29;20449;-73
2022/03/30 00:46:38;;;;;;;17.07;13.07;;;16.60;55.80;;;-142.21;94.41;112049.66;4954198;29;20441;-73
2022/03/30 00:49:06;;;;;;;19.50;13.70;;;16.60;56.00;;;-142.21;95.53;112049.66;4953961;28;20463;-73
2022/03/30 00:51:34;;;;;;;16.13;12.13;;;16.50;56.80;;;-142.21;93.72;112049.66;4904674;29;20524;-73
2022/03/30 00:54:02;;;;;;;16.40;13.30;;;16.50;56.20;;;-142.21;97.19;112049.66;4955573;28;20464;-73
2022/03/30 00:56:34;;;;;;;18.23;12.10;;;16.50;56.40;;;-142.21;96.71;112049.66;4954030;28;20503;-73
2022/03/30 00:59:05;;;;;;;16.13;12.77;;;16.40;56.40;;;-142.21;98.77;112049.66;4954583;29;20433;-73
2022/03/30 01:01:34;;;;;;;20.33;12.40;;;16.30;56.70;;;-142.21;99.68;112049.66;4955569;29;20445;-73
2022/03/30 01:04:04;;;;;;;20.40;13.27;;;16.20;57.10;;;-142.21;100.00;112049.66;4957275;28;20959;-73
2022/03/30 01:06:31;;;;;;;18.97;13.03;;;16.20;58.20;;;-142.21;100.00;112049.66;4957338;29;20444;-73
2022/03/30 01:08:59;;;;;;;21.20;14.30;;;16.20;58.10;;;-142.21;100.00;112049.66;4957750;28;20960;-72
2022/03/30 01:11:28;;;;;;;17.90;13.47;;;16.20;58.40;;;-142.21;100.00;112049.66;4972895;28;20979;-74
2022/03/30 01:13:55;;;;;;;20.63;14.10;;;16.30;59.10;;;-142.21;100.00;112049.66;4955037;28;20540;-73
2022/03/30 01:16:24;;;;;;;17.83;13.87;;;16.20;58.60;;;-142.21;100.00;112049.66;4953240;29;20453;-73
2022/03/30 01:19:05;;;;;;;17.60;13.80;;;16.30;58.50;;;-142.21;100.00;112049.66;4954117;28;20448;-74
2022/03/30 01:21:34;;;;;;;19.53;14.17;;;16.30;59.50;;;-142.21;100.00;112049.66;4953124;29;20445;-73
2022/03/30 01:24:01;;;;;;;23.73;14.33;;;16.20;59.60;;;-142.21;100.00;112049.66;4956858;28;20507;-73
2022/03/30 01:26:28;;;;;;;18.67;14.83;;;16.20;59.00;;;-142.21;100.00;112049.66;4957092;28;20459;-73
2022/03/30 01:28:56;;;;;;;20.27;14.13;;;16.20;59.40;;;-142.21;100.00;112049.66;4956508;28;20787;-73
2022/03/30 01:34:09;;;;;;;19.37;13.93;;;16.10;59.70;;;-142.21;100.00;112049.66;4956972;29;20583;-73
2022/03/30 01:36:37;;;;;;;15.63;13.60;;;16.20;59.40;;;-142.21;100.00;112049.66;4956428;28;20535;-73
2022/03/30 01:39:05;;;;;;;20.47;14.17;;;16.20;60.70;;;-142.21;100.00;112049.66;4956550;28;20540;-73
2022/03/30 01:41:33;;;;;;;21.13;14.10;;;16.10;61.40;;;-142.21;100.00;112049.66;4957332;28;20553;-73
2022/03/30 01:44:00;;;;;;;18.93;13.37;;;16.00;60.30;;;-142.21;100.00;112049.66;4952068;28;20472;-73
2022/03/30 01:46:27;;;;;;;19.07;13.73;;;16.10;60.30;;;-142.21;100.00;112049.66;4959240;28;20480;-73
2022/03/30 01:48:54;;;;;;;18.90;13.73;;;16.10;61.20;;;-142.21;100.00;112049.66;4957269;28;20461;-73
2022/03/30 01:51:21;;;;;;;21.07;13.77;;;16.10;60.70;;;-142.21;100.00;112049.66;4957213;28;20480;-72
2022/03/30 01:53:51;;;;;;;19.57;13.87;;;16.10;61.20;;;-142.21;100.00;112049.66;4956491;28;20539;-74
2022/03/30 01:56:19;;;;;;;20.27;14.70;;;16.10;61.00;;;-142.21;100.00;112049.66;4957559;28;20491;-73
2022/03/30 01:58:46;;;;;;;21.53;14.97;;;16.00;60.80;;;-142.21;100.00;112049.66;4956554;29;20464;-72
2022/03/30 02:01:14;;;;;;;19.53;14.20;;;16.10;60.40;;;-142.21;100.00;112049.66;4957482;28;20552;-73
2022/03/30 02:03:41;;;;;;;20.17;14.30;;;16.10;60.00;;;-142.21;100.00;112049.66;4956810;28;20536;-74
2022/03/30 02:06:12;;;;;;;16.77;13.07;;;15.90;60.60;;;-142.21;100.00;112049.66;4955849;29;20459;-73
2022/03/30 02:08:40;;;;;;;16.60;12.57;;;15.90;61.90;;;-142.21;100.00;112049.66;4956596;29;20850;-73
2022/03/30 02:11:08;;;;;;;20.43;14.37;;;15.80;62.00;;;-142.21;100.00;112049.66;4945861;28;20540;-73
2022/03/30 02:13:35;;;;;;;18.27;14.13;;;15.70;61.60;;;-142.21;100.00;112049.66;4957067;28;20532;-73
2022/03/30 02:16:02;;;;;;;18.10;13.47;;;15.80;61.50;;;-142.21;100.00;112049.66;4956172;28;20449;-73
2022/03/30 02:18:30;;;;;;;20.37;15.53;;;15.80;61.40;;;-142.21;100.00;112049.66;4962629;28;20516;-73
2022/03/30 02:20:57;;;;;;;20.37;13.83;;;15.80;61.60;;;-142.21;100.00;112049.66;4956579;28;20463;-74
2022/03/30 02:23:24;;;;;;;20.97;15.20;;;15.80;60.50;;;-142.21;100.00;112049.66;4955940;28;20490;-73
2022/03/30 02:25:53;;;;;;;17.63;14.17;;;15.80;61.40;;;-142.21;100.00;112049.66;4956373;29;20476;-73
2022/03/30 02:28:21;;;;;;;19.30;14.63;;;15.90;61.20;;;-142.21;100.00;112049.66;4937351;29;20511;-73
2022/03/30 02:30:48;;;;;;;21.83;14.43;;;15.90;62.20;;;-142.21;100.00;112049.66;4956195;28;20877;-73
2022/03/30 02:33:15;;;;;;;20.33;14.63;;;15.80;62.50;;;-142.21;100.00;112049.66;4954957;28;20453;-73
2022/03/30 02:35:43;;;;;;;21.43;14.60;;;15.80;62.00;;;-142.21;100.00;112049.66;4955669;28;20950;-74
2022/03/30 02:38:10;;;;;;;22.43;14.50;;;15.90;61.90;;;-142.21;100.00;112049.66;4956093;28;20484;-73
2022/03/30 02:40:37;;;;;;;20.77;14.37;;;15.90;61.60;;;-142.21;100.00;112049.66;4956107;28;20458;-73
2022/03/30 02:43:04;;;;;;;19.70;14.87;;;15.80;61.60;;;-142.21;100.00;112049.66;4955986;29;20515;-73
2022/03/30 02:45:33;;;;;;;20.57;14.43;;;15.80;61.00;;;-142.21;100.00;112049.66;4955594;28;20452;-73
2022/03/30 02:50:48;;;;;;;16.80;13.03;;;15.70;61.80;;;-142.21;100.00;112049.66;4950371;29;20980;-73
2022/03/30 02:53:16;;;;;;;19.57;13.97;;;15.50;62.40;;;-142.21;100.00;112049.66;4955838;29;20476;-73
2022/03/30 02:55:43;;;;;;;16.23;13.77;;;15.50;62.50;;;-142.21;100.00;112049.66;4955077;28;20551;-73
2022/03/30 02:58:11;;;;;;;22.80;14.20;;;15.40;62.50;;;-142.21;100.00;112049.66;4956293;28;20490;-72
2022/03/30 03:00:41;;;;;;;20.50;14.70;;;15.40;62.70;;;-142.21;100.00;112049.66;4955095;28;20437;-73
2022/03/30 03:03:27;;;;;;;19.53;13.83;;;15.30;62.90;;;-142.21;100.00;112049.66;4948872;28;20481;-73
2022/03/30 03:05:55;;;;;;;22.47;14.90;;;15.30;62.90;;;-142.21;100.00;112049.66;4950598;29;20445;-73
2022/03/30 03:08:22;;;;;;;17.70;13.77;;;15.40;62.60;;;-142.21;100.00;112049.66;4955721;28;20520;-73
2022/03/30 03:10:50;;;;;;;19.97;14.03;;;15.30;62.30;;;-142.21;100.00;112049.66;4955153;29;20491;-73
2022/03/30 03:13:18;;;;;;;21.60;14.10;;;15.20;62.70;;;-142.21;100.00;112049.66;4955846;28;20459;-73
2022/03/30 03:15:48;;;;;;;20.27;14.10;;;15.20;62.40;;;-142.21;100.00;112049.66;4954013;29;20457;-73
2022/03/30 03:18:15;;;;;;;20.83;14.97;;;15.20;62.70;;;-142.21;100.00;112049.66;4955334;28;20491;-72
2022/03/30 03:20:44;;;;;;;20.23;13.93;;;15.20;62.70;;;-142.21;100.00;112049.66;4954659;28;20942;-73
2022/03/30 03:23:13;;;;;;;19.93;14.23;;;15.30;62.50;;;-142.21;100.00;112049.66;4955695;28;20487;-73
2022/03/30 03:25:41;;;;;;;19.73;13.80;;;15.40;62.50;;;-142.21;100.00;112049.66;4955299;28;20461;-74
2022/03/30 03:28:10;;;;;;;20.00;14.00;;;15.40;62.30;;;-142.21;100.00;112049.66;4961653;28;20449;-73
2022/03/30 03:30:38;;;;;;;19.30;14.60;;;15.50;62.50;;;-142.21;100.00;112049.66;4962774;28;20492;-73
2022/03/30 03:33:07;;;;;;;21.67;13.23;;;15.50;62.20;;;-142.21;100.00;112049.66;4954839;28;20527;-73
2022/03/30 03:35:36;;;;;;;20.33;14.40;;;15.60;62.00;;;-142.21;100.00;112049.66;4955469;28;20449;-72
2022/03/30 03:38:04;;;;;;;20.67;13.93;;;15.60;62.70;;;-142.21;100.00;112049.66;4954683;28;20524;-72
2022/03/30 03:40:32;;;;;;;21.63;15.47;;;15.50;62.90;;;-142.21;100.00;112049.66;4955355;29;20520;-73
2022/03/30 03:43:01;;;;;;;22.57;15.43;;;15.50;63.10;;;-142.21;100.00;112049.66;4936539;29;20508;-74
2022/03/30 03:45:29;;;;;;;22.33;15.47;;;15.50;62.60;;;-142.21;100.00;112049.66;4954779;28;20488;-73
2022/03/30 03:47:57;;;;;;;22.10;16.50;;;15.40;62.90;;;-142.21;100.00;112049.66;4953627;29;20886;-73
2022/03/30 03:50:26;;;;;;;23.33;15.70;;;15.40;63.20;;;-142.21;100.00;112049.66;4954692;28;20543;-73
2022/03/30 03:52:54;;;;;;;24.13;16.33;;;15.40;63.00;;;-142.21;100.00;112049.66;4955047;29;20524;-73
2022/03/30 03:55:21;;;;;;;23.43;16.57;;;15.40;63.70;;;-142.21;100.00;112049.66;4953535;29;20515;-73
2022/03/30 03:57:49;;;;;;;25.73;16.47;;;15.40;63.90;;;-142.21;100.00;112049.66;4946348;29;20495;-73
2022/03/30 04:00:17;;;;;;;22.90;15.93;;;15.40;64.70;;;-142.21;100.00;112049.66;4954318;29;20964;-73
2022/03/30 04:02:45;;;;;;;26.27;17.60;;;15.40;64.50;;;-142.21;100.00;112049.66;4954177;29;20449;-73
2022/03/30 04:05:14;;;;;;;24.73;17.03;;;15.30;65.00;;;-142.21;100.00;112049.66;4954362;28;20448;-73
2022/03/30 04:07:43;;;;;;;21.20;16.03;;;15.30;66.20;;;-142.21;100.00;112049.66;4950647;29;20492;-73
2022/03/30 04:10:11;;;;;;;26.03;18.23;;;15.20;66.70;;;-142.21;100.00;112049.66;4952984;29;20453;-73
2022/03/30 04:12:39;;;;;;;24.13;16.57;;;15.10;67.50;;;-142.21;100.00;112049.66;4954446;29;20813;-72
2022/03/30 04:15:09;;;;;;;22.63;16.73;;;15.10;68.00;;;-142.21;100.00;112049.66;4954577;29;20456;-72
2022/03/30 04:17:43;;;;;;;24.80;18.07;;;15.00;67.70;;;-142.21;100.00;112049.66;4953391;28;21024;-72
2022/03/30 04:20:11;;;;;;;25.27;17.57;;;15.00;68.60;;;-142.21;100.00;112049.66;4953823;29;20473;-73
2022/03/30 04:22:39;;;;;;;25.17;17.33;;;15.00;68.50;;;-142.21;100.00;112049.66;4953109;28;20480;-72
2022/03/30 04:25:09;;;;;;;24.60;17.03;;;15.00;68.00;;;-142.21;100.00;112049.66;4954260;29;20499;-72
2022/03/30 04:27:36;;;;;;;27.23;18.40;;;15.00;68.10;;;-142.21;100.00;112049.66;4951928;29;20802;-72
2022/03/30 04:30:05;;;;;;;24.27;16.73;;;15.10;68.20;;;-142.21;100.00;112049.66;4941869;29;20445;-72
2022/03/30 04:32:32;;;;;;;26.93;16.50;;;15.10;68.70;;;-142.21;100.00;112049.66;4952483;28;20484;-72
2022/03/30 04:34:59;;;;;;;29.93;16.77;;;15.10;68.00;;;-142.21;100.00;112049.66;4951984;29;20544;-72
2022/03/30 04:37:26;;;;;;;28.10;17.30;;;15.00;67.90;;;-142.21;100.00;112049.66;4957477;28;20448;-71
2022/03/30 04:39:53;;;;;;;24.93;15.67;;;15.10;68.10;;;-142.21;100.00;112049.66;4956301;28;20942;-73
2022/03/30 04:42:22;;;;;;;24.53;16.33;;;15.10;68.30;;;-142.21;100.00;112049.66;4957317;28;20453;-73
2022/03/30 04:44:49;;;;;;;22.37;15.03;;;15.10;68.50;;;-142.21;100.00;112049.66;4952893;28;20536;-72
2022/03/30 04:47:17;;;;;;;23.30;14.60;;;15.00;67.80;;;-142.21;100.00;112049.66;4951968;29;20452;-72
2022/03/30 04:49:44;;;;;;;20.20;14.87;;;14.90;69.30;;;-142.21;100.00;112049.66;4951592;29;20535;-72
2022/03/30 04:52:11;;;;;;;23.87;15.70;;;14.80;68.90;;;-142.21;100.00;112049.66;4953516;29;20822;-72
2022/03/30 04:54:39;;;;;;;26.30;15.20;;;14.80;69.50;;;-142.21;100.00;112049.66;4942274;29;20459;-72
2022/03/30 04:57:06;;;;;;;20.83;14.87;;;14.80;68.90;;;-142.21;100.00;112049.66;4953350;29;20703;-72
2022/03/30 04:59:34;;;;;;;25.70;14.70;;;14.80;68.80;;;-142.21;100.00;112049.66;4952856;28;21043;-73
2022/03/30 05:02:02;;;;;;;23.20;14.53;;;14.70;69.00;;;-142.21;100.00;112049.66;4953205;29;20562;-72
2022/03/30 05:04:32;;;;;;;22.47;15.40;;;14.70;69.10;;;-142.21;100.00;112049.66;4947821;29;20464;-72
2022/03/30 05:06:59;;;;;;;18.53;14.33;;;14.70;69.40;;;-142.21;100.00;112049.66;4952607;29;20495;-72
2022/03/30 05:09:26;;;;;;;23.87;15.87;;;14.60;69.30;;;-142.21;100.00;112049.66;4953709;28;20540;-72
2022/03/30 05:11:53;;;;;;;24.50;15.30;;;14.60;69.40;;;-142.21;100.00;112049.66;4952483;29;20560;-72
2022/03/30 05:14:21;;;;;;;22.30;14.87;;;14.60;69.60;;;-142.21;100.00;112049.66;4944318;29;20975;-72
2022/03/30 05:16:50;;;;;;;23.07;14.37;;;14.70;69.40;;;-142.21;100.00;112049.66;4953213;28;20453;-72
2022/03/30 05:19:17;;;;;;;22.80;14.90;;;14.60;69.50;;;-142.21;100.00;112049.66;4945682;29;20488;-73
2022/03/30 05:21:44;;;;;;;20.07;14.30;;;14.60;69.20;;;-142.21;100.00;112049.66;4953284;29;20454;-73
2022/03/30 05:24:11;;;;;;;21.93;14.00;;;14.70;68.90;;;-142.21;100.00;112049.66;4953422;29;20874;-73
2022/03/30 05:26:38;;;;;;;22.60;14.20;;;14.80;68.40;;;-142.21;100.00;112049.66;4953368;29;20452;-73
2022/03/30 05:29:05;;;;;;;20.60;14.17;;;14.80;68.80;;;-142.21;100.00;112049.66;4953984;28;20484;-73
2022/03/30 05:31:33;;;;;;;21.30;14.57;;;14.90;68.20;;;-142.21;100.00;112049.66;4960346;29;20516;-73
2022/03/30 05:34:01;;;;;;;22.53;14.30;;;14.90;68.10;;;-142.21;100.00;112049.66;4959739;29;20472;-73
2022/03/30 05:36:28;;;;;;;20.57;14.30;;;14.90;67.90;;;-142.21;100.00;112049.66;4953009;29;20816;-72
2022/03/30 05:38:56;;;;;;;24.33;14.07;;;15.00;67.90;;;-142.21;100.00;112049.66;4957794;29;20544;-72
2022/03/30 05:41:23;;;;;;;24.30;14.77;;;15.00;68.10;;;-142.21;100.00;112049.66;4962283;29;20463;-73
2022/03/30 05:43:50;;;;;;;22.50;14.40;;;15.00;68.40;;;-142.21;100.00;112049.66;4960131;29;20459;-72
2022/03/30 05:46:17;;;;;;;19.03;13.53;;;15.00;68.20;;;-142.21;100.00;112049.66;4951765;29;20548;-72
2022/03/30 05:48:44;;;;;;;21.70;14.97;;;15.00;67.90;;;-142.21;100.00;112049.66;4956141;28;20778;-72
2022/03/30 05:51:14;;;;;;;26.87;15.00;;;15.10;67.30;;;-142.21;100.00;112049.66;4960638;28;20452;-72
2022/03/30 05:53:42;;;;;;;22.10;14.23;;;15.10;67.90;;;-142.21;100.00;112049.66;4952755;29;20473;-72
2022/03/30 05:56:09;;;;;;;22.67;14.17;;;15.10;68.10;;;-142.21;100.00;112049.66;4952827;29;20552;-73
2022/03/30 05:58:36;;;;;;;24.27;15.17;;;15.10;68.20;;;-142.21;100.00;112049.66;4951154;29;20528;-73
2022/03/30 06:01:04;;;;;;;25.13;14.77;;;15.10;68.10;;;-142.21;100.00;112049.66;4955500;28;20435;-72
2022/03/30 06:03:34;;;;;;;22.40;14.20;;;15.10;68.30;;;-142.21;100.00;112049.66;4957365;28;20459;-72
2022/03/30 06:06:01;;;;;;;21.97;14.73;;;15.10;68.70;;;-142.21;100.00;112049.66;4952790;28;20487;-72
2022/03/30 06:08:30;;;;;;;21.93;16.00;;;15.10;68.50;;;-142.21;100.00;112049.66;4953817;28;20469;-72
2022/03/30 06:10:57;;;;;;;28.50;16.43;;;15.10;67.70;;;-142.21;100.00;112049.66;4955965;29;20455;-72
2022/03/30 06:13:24;;;;;;;20.87;14.53;;;15.20;67.90;;;-142.21;100.00;112049.66;4955048;29;20445;-73
2022/03/30 06:15:51;;;;;;;25.63;14.30;;;15.20;68.60;;;-142.21;100.00;112049.66;4955859;29;20904;-72
2022/03/30 06:18:18;;;;;;;24.93;14.70;;;15.20;68.20;;;-142.21;100.00;112049.66;4956077;28;20493;-72
2022/03/30 06:20:46;;;;;;;23.10;14.70;;;15.20;68.30;;;-142.21;100.00;112049.66;4955303;28;20449;-72
2022/03/30 06:23:14;;;;;;;19.17;14.00;;;15.30;68.60;;;-142.21;100.00;112049.66;4955975;29;20488;-72
2022/03/30 06:25:42;;;;;;;25.93;15.83;;;15.30;68.60;;;-142.21;100.00;112049.66;4955396;29;20460;-72
2022/03/30 06:28:09;;;;;;;24.03;15.43;;;15.30;68.50;;;-142.21;100.00;112049.66;4955754;29;20539;-73
2022/03/30 06:30:37;;;;;;;22.20;14.03;;;15.30;68.10;;;-142.21;100.00;112049.66;4955504;29;20461;-72
2022/03/30 06:33:05;;;;;;;23.47;14.77;;;15.40;68.00;;;-142.21;100.00;112049.66;4956118;29;20539;-72
2022/03/30 06:35:32;;;;;;;21.80;15.47;;;15.40;68.20;;;-142.21;100.00;112049.66;4956300;29;20744;-72
2022/03/30 06:37:59;;;;;;;18.90;14.33;;;15.30;68.60;;;-142.21;100.00;112049.66;4955574;29;20511;-72
2022/03/30 06:40:26;;;;;;;22.13;14.23;;;15.20;68.90;;;-142.21;100.00;112049.66;4954846;29;20464;-73
2022/03/30 06:42:56;;;;;;;27.93;14.97;;;15.30;68.70;;;-142.21;100.00;112049.66;4947807;29;20453;-73
2022/03/30 06:45:23;;;;;;;24.23;15.47;;;15.30;69.20;;;-142.21;100.00;112049.66;4960607;28;20476;-72
2022/03/30 06:47:50;;;;;;;21.00;15.30;;;15.30;68.70;;;-142.21;100.00;112049.66;4954476;29;20461;-72
2022/03/30 06:50:19;;;;;;;23.87;15.27;;;15.30;68.90;;;-142.21;100.00;112049.66;4952107;29;20445;-73
2022/03/30 06:52:46;;;;;;;29.63;18.40;;;15.30;69.60;;;-142.21;100.00;112049.66;4956244;28;20460;-72
2022/03/30 06:55:14;;;;;;;24.73;16.23;;;15.30;68.90;;;-142.21;100.00;112049.66;4963265;28;20460;-72
2022/03/30 06:57:42;;;;;;;25.07;15.50;;;15.30;68.40;;;-142.21;100.00;112049.66;4955566;29;20449;-72
2022/03/30 07:00:12;;;;;;;23.80;16.73;;;15.30;68.20;;;-142.21;100.00;112049.66;4956157;29;20488;-72
2022/03/30 07:02:40;;;;;;;23.17;15.90;;;15.40;68.10;;;-142.21;100.00;112049.66;4952766;29;20780;-72
2022/03/30 07:05:09;;;;;;;21.43;14.53;;;15.50;68.30;;;-142.21;100.00;112049.66;4936618;29;20461;-73
2022/03/30 07:10:23;;;;;;;22.33;15.13;;;15.50;68.70;;;-142.21;100.00;112049.66;4955752;29;20408;-72
2022/03/30 07:12:53;;;;;;;21.03;14.97;;;15.50;68.50;;;-142.21;100.00;112049.66;4952643;29;20863;-73
2022/03/30 07:15:22;;;;;;;22.57;13.73;;;15.50;68.50;;;-142.21;100.00;112049.66;4955611;29;20445;-72
2022/03/30 07:17:52;;;;;;;20.13;14.73;;;15.50;68.30;;;-142.21;100.00;112049.66;4955214;28;20533;-71
2022/03/30 07:20:21;;;;;;;19.93;14.53;;;15.50;68.00;;;-142.21;100.00;112049.66;4955149;29;20987;-72
2022/03/30 07:22:50;;;;;;;22.20;14.50;;;15.50;68.70;;;-142.21;100.00;112049.66;4955492;29;20485;-72
2022/03/30 07:25:19;;;;;;;22.40;14.97;;;15.50;68.80;;;-142.21;100.00;112049.66;4953976;29;20464;-72
2022/03/30 07:27:50;;;;;;;21.17;14.30;;;15.60;68.60;;;-142.21;100.00;112049.66;4947030;29;20540;-72
2022/03/30 07:30:19;;;;;;;22.73;14.63;;;15.60;69.10;;;-142.21;100.00;112049.66;4954551;29;20448;-74
2022/03/30 07:32:51;;;;;;;22.03;15.23;;;15.60;68.50;;;-142.21;100.00;112049.66;4955976;29;20620;-74
2022/03/30 07:35:22;;;;;;;22.53;15.87;;;15.60;68.80;;;-142.21;100.00;112049.66;4954299;29;20948;-74
2022/03/30 07:37:50;;;;;;;22.83;15.03;;;15.60;68.60;;;-142.21;100.00;112049.66;4954231;29;20515;-73
2022/03/30 07:40:21;;;;;;;22.33;14.97;;;15.60;69.40;;;-142.21;100.00;112049.66;4953603;28;20579;-74
2022/03/30 07:42:50;;;;;;;26.23;16.40;;;15.50;69.20;;;-142.21;100.00;112049.66;4953256;29;20467;-74
2022/03/30 07:45:19;;;;;;;24.07;16.87;;;15.50;69.70;;;-142.21;100.00;112049.66;4949485;29;20456;-73
2022/03/30 07:47:48;;;;;;;26.00;17.17;;;15.60;69.40;;;-142.21;100.00;112049.66;4939771;29;20541;-73
2022/03/30 07:50:16;;;;;;;25.33;15.37;;;15.60;68.60;;;-142.21;100.00;112049.66;4948041;29;20484;-73
2022/03/30 07:52:45;;;;;;;27.13;17.80;;;15.60;68.40;;;-142.21;100.00;112049.66;4954625;28;20457;-74
2022/03/30 07:55:13;;;;;;;24.77;16.33;;;15.70;68.80;;;-142.21;100.00;112049.66;4949205;29;20456;-73
2022/03/30 07:57:42;;;;;;;23.13;16.57;;;15.70;69.30;;;-142.21;100.00;112049.66;4954239;28;20933;-73
2022/03/30 08:00:16;;;;;;;21.60;14.73;;;15.60;68.80;;;-142.21;100.00;112049.66;4953691;28;21004;-74
2022/03/30 08:02:44;;;;;;;21.20;13.87;;;15.50;67.90;;;-142.21;100.00;112049.66;4953493;29;20926;-73
2022/03/30 08:05:13;;;;;;;18.70;12.93;;;15.40;67.70;;;-142.21;100.00;112049.66;4948634;28;20503;-74
2022/03/30 08:07:43;;;;;;;21.07;14.23;;;15.40;67.40;;;-142.21;100.00;112049.66;4968046;28;20854;-74
2022/03/30 08:10:11;;;;;;;20.30;14.30;;;15.30;67.40;;;-142.21;100.00;112049.66;4942190;29;20576;-73
2022/03/30 08:12:39;;;;;;;22.63;13.93;;;15.20;67.00;;;-142.21;100.00;112049.66;4953869;28;20531;-73
2022/03/30 08:15:08;;;;;;;21.83;14.47;;;15.10;67.40;;;-142.21;100.00;112049.66;4954177;28;20459;-74
2022/03/30 08:17:35;;;;;;;20.10;14.03;;;15.10;67.30;;;-142.21;100.00;112049.66;4953641;28;20539;-73
2022/03/30 08:20:04;;;;;;;21.07;13.73;;;15.00;67.20;;;-142.21;100.00;112049.66;4954194;28;20837;-73
2022/03/30 08:22:33;;;;;;;26.30;15.93;;;15.00;67.50;;;-142.21;100.00;112049.66;4953156;28;20815;-74
2022/03/30 08:25:07;;;;;;;24.27;16.27;;;15.00;67.30;;;-142.21;100.00;112049.66;4953758;29;20933;-74
2022/03/30 08:27:36;;;;;;;21.27;15.27;;;15.00;67.90;;;-142.21;100.00;112049.66;4953478;29;20528;-74
2022/03/30 08:30:06;;;;;;;23.10;15.73;;;14.90;67.20;;;-142.21;100.00;112049.66;4953481;28;20527;-73
2022/03/30 08:32:34;;;;;;;22.93;15.27;;;14.90;67.60;;;-142.21;100.00;112049.66;4953069;29;20448;-73
2022/03/30 08:35:04;;;;;;;23.67;15.47;;;14.90;68.00;;;-142.21;100.00;112049.66;4919912;29;20484;-74
2022/03/30 08:37:35;;;;;;;21.00;14.43;;;14.90;67.10;;;-142.21;100.00;112049.66;4952834;29;20942;-74
2022/03/30 08:40:03;;;;;;;24.37;15.43;;;14.90;67.60;;;-142.21;100.00;112049.66;4951648;28;20477;-74
2022/03/30 08:42:31;;;;;;;22.27;15.63;;;14.90;67.60;;;-142.21;100.00;112049.66;4951998;29;20457;-73
2022/03/30 08:44:59;;;;;;;24.43;17.03;;;14.90;67.90;;;-142.21;100.00;112049.66;4953784;29;20535;-73
2022/03/30 08:47:26;;;;;;;25.80;16.70;;;14.80;67.80;;;-142.21;100.00;112049.66;4953456;29;20456;-74
2022/03/30 08:49:54;;;;;;;24.53;16.20;;;14.70;67.60;;;-142.21;100.00;112049.66;4953365;28;20445;-74
2022/03/30 08:52:21;;;;;;;24.20;16.33;;;14.70;67.50;;;-142.21;100.00;112049.66;4953371;28;20981;-73
2022/03/30 08:54:51;;;;;;;28.63;17.67;;;14.70;67.70;;;-142.21;100.00;112049.66;4953084;28;20507;-74
2022/03/30 08:57:19;;;;;;;25.83;16.93;;;14.70;67.60;;;-142.21;100.00;112049.66;4953406;28;20500;-73
2022/03/30 09:00:09;;;;;;;26.33;16.03;;;14.60;67.70;;;-142.21;100.00;112049.66;4953386;28;20492;-73
2022/03/30 09:02:38;;;;;;;26.57;17.27;;;14.60;68.40;;;-142.21;100.00;112049.66;4943732;29;20540;-73
2022/03/30 09:05:16;;;;;;;28.07;17.70;;;14.60;68.00;;;-142.21;100.00;112049.66;4952780;29;20449;-74
2022/03/30 09:07:48;;;;;;;29.63;17.90;;;14.60;68.20;;;-142.21;100.00;112049.66;4949135;28;20445;-73
2022/03/30 09:10:20;;;;;;;28.70;19.23;;;14.50;68.30;;;-142.21;100.00;112049.66;4946194;29;20437;-74
2022/03/30 09:12:49;;;;;;;27.67;18.07;;;14.50;68.70;;;-142.21;100.00;112049.66;4953627;29;20445;-74
2022/03/30 09:15:19;;;;;;;27.40;17.83;;;14.50;68.60;;;-142.21;100.00;112049.66;4949765;29;20531;-74
2022/03/30 09:17:48;;;;;;;28.83;18.37;;;14.60;68.60;;;-142.21;100.00;112049.66;4953575;28;20453;-74
2022/03/30 09:20:19;;;;;;;28.43;18.57;;;14.60;68.30;;;-142.21;100.00;112049.66;4951755;29;20503;-74
2022/03/30 09:22:50;;;;;;;32.00;20.13;;;14.60;68.70;;;-142.21;100.00;112049.66;4953487;28;20519;-74
2022/03/30 09:25:23;;;;;;;29.77;19.23;;;14.50;68.50;;;-142.21;100.00;112049.66;4953104;29;20547;-73
2022/03/30 09:27:53;;;;;;;28.57;19.47;;;14.40;68.50;;;-142.21;100.00;112049.66;4953730;29;21000;-74
2022/03/30 09:30:22;;;;;;;30.13;19.40;;;14.30;69.00;;;-142.21;100.00;112049.66;4934788;29;20804;-74
2022/03/30 09:32:51;;;;;;;27.83;18.53;;;14.40;69.00;;;-142.21;100.00;112049.66;4953265;29;20531;-74
2022/03/30 09:35:28;;;;;;;31.87;19.70;;;14.40;68.70;;;-142.21;100.00;112049.66;4952631;29;20495;-74
2022/03/30 09:38:09;;;;;;;30.17;19.87;;;14.40;68.90;;;-142.21;100.00;112049.66;4951564;29;20508;-73
2022/03/30 09:40:49;;;;;;;31.13;18.97;;;14.50;69.20;;;-142.21;100.00;112049.66;4949288;28;20496;-73
2022/03/30 09:43:22;;;;;;;30.97;19.77;;;14.50;69.10;;;-142.21;100.00;112049.66;4954595;29;20542;-73
2022/03/30 09:46:03;;;;;;;30.70;19.47;;;14.50;68.60;;;-142.21;100.00;112049.66;4955826;29;20456;-73
2022/03/30 09:48:33;;;;;;;30.77;19.67;;;14.50;68.60;;;-142.21;100.00;112049.66;4950964;29;20480;-73
2022/03/30 09:51:02;;;;;;;28.97;19.70;;;14.50;68.60;;;-142.21;100.00;112049.66;4956586;29;20452;-73
2022/03/30 09:53:31;;;;;;;29.50;18.70;;;14.40;68.80;;;-142.21;100.00;112049.66;4956016;28;20582;-73
2022/03/30 09:56:03;;;;;;;27.53;19.73;;;14.50;68.60;;;-142.21;100.00;112049.66;4948210;29;20458;-73
2022/03/30 09:58:34;;;;;;;34.00;20.00;;;14.50;69.30;;;-142.21;100.00;112049.66;4949791;29;20456;-73